sensor_id;sensor_type;location;lat;lon;timestamp;pressure;altitude;pressure_sealevel;temperature;humidity
18790;BME280;9523;42.650;23.386;2023-04-09T00:00:17;94827.38;;;7.41;100.00
18790;BME280;9523;42.650;23.386;2023-04-09T00:02:44;94826.09;;;7.44;100.00
18790;BME280;9523;42.650;23.386;2023-04-09T00:05:12;94819.75;;;7.45;100.00
18790;BME280;9523;42.650;23.386;2023-04-09T00:07:41;94829.47;;;7.44;100.00
18790;BME280;9523;42.650;23.386;2023-04-09T00:10:09;94824.78;;;7.36;100.00
18790;BME280;9523;42.650;23.386;2023-04-09T00:12:35;94831.84;;;7.36;100.00
18790;BME280;9523;42.650;23.386;2023-04-09T00:15:03;94828.13;;;7.17;100.00
18790;BME280;9523;42.650;23.386;2023-04-09T00:17:29;94834.47;;;7.16;100.00
18790;BME280;9523;42.650;23.386;2023-04-09T00:19:57;94835.75;;;7.13;100.00
18790;BME280;9523;42.650;23.386;2023-04-09T00:22:25;94832.31;;;6.97;100.00
18790;BME280;9523;42.650;23.386;2023-04-09T00:24:58;94835.22;;;7.06;100.00
18790;BME280;9523;42.650;23.386;2023-04-09T00:27:26;94832.84;;;6.99;100.00
18790;BME280;9523;42.650;23.386;2023-04-09T00:29:52;94836.00;;;7.01;100.00
18790;BME280;9523;42.650;23.386;2023-04-09T00:32:21;94835.22;;;6.96;100.00
18790;BME280;9523;42.650;23.386;2023-04-09T00:34:47;94827.06;;;6.97;100.00
18790;BME280;9523;42.650;23.386;2023-04-09T00:37:14;94834.16;;;7.02;100.00
18790;BME280;9523;42.650;23.386;2023-04-09T00:39:42;94834.16;;;7.02;100.00
18790;BME280;9523;42.650;23.386;2023-04-09T00:42:13;94838.63;;;7.01;100.00
18790;BME280;9523;42.650;23.386;2023-04-09T00:44:40;94841.78;;;7.03;100.00
18790;BME280;9523;42.650;23.386;2023-04-09T00:47:08;94829.69;;;7.02;100.00
18790;BME280;9523;42.650;23.386;2023-04-09T00:49:35;94826.03;;;7.03;100.00
18790;BME280;9523;42.650;23.386;2023-04-09T00:52:03;94825.25;;;7.03;100.00
18790;BME280;9523;42.650;23.386;2023-04-09T00:54:30;94823.94;;;7.05;100.00
18790;BME280;9523;42.650;23.386;2023-04-09T00:56:58;94822.09;;;6.96;100.00
18790;BME280;9523;42.650;23.386;2023-04-09T00:59:26;94832.31;;;6.97;100.00
18790;BME280;9523;42.650;23.386;2023-04-09T01:01:53;94832.31;;;6.92;100.00
18790;BME280;9523;42.650;23.386;2023-04-09T01:04:23;94826.00;;;6.93;100.00
18790;BME280;9523;42.650;23.386;2023-04-09T01:06:52;94830.75;;;6.96;100.00
18790;BME280;9523;42.650;23.386;2023-04-09T01:09:26;94838.06;;;6.89;100.00
18790;BME280;9523;42.650;23.386;2023-04-09T01:12:04;94839.63;;;6.85;100.00
18790;BME280;9523;42.650;23.386;2023-04-09T01:14:38;94811.22;;;6.57;100.00
18790;BME280;9523;42.650;23.386;2023-04-09T01:17:15;94840.16;;;6.87;100.00
18790;BME280;9523;42.650;23.386;2023-04-09T01:19:47;94841.75;;;6.93;100.00
18790;BME280;9523;42.650;23.386;2023-04-09T01:22:44;94843.81;;;6.81;100.00
18790;BME280;9523;42.650;23.386;2023-04-09T01:25:28;94838.56;;;6.76;100.00
18790;BME280;9523;42.650;23.386;2023-04-09T01:28:24;94832.75;;;6.69;100.00
18790;BME280;9523;42.650;23.386;2023-04-09T01:30:55;94834.03;;;6.61;100.00
18790;BME280;9523;42.650;23.386;2023-04-09T01:33:25;94842.19;;;6.60;100.00
18790;BME280;9523;42.650;23.386;2023-04-09T01:35:52;94845.28;;;6.57;100.00
18790;BME280;9523;42.650;23.386;2023-04-09T01:38:22;94825.09;;;6.47;100.00
18790;BME280;9523;42.650;23.386;2023-04-09T01:40:54;94846.88;;;6.58;100.00
18790;BME280;9523;42.650;23.386;2023-04-09T01:43:24;94850.06;;;6.60;100.00
18790;BME280;9523;42.650;23.386;2023-04-09T01:45:53;94786.44;;;6.18;100.00
18790;BME280;9523;42.650;23.386;2023-04-09T01:48:23;94847.91;;;6.57;100.00
18790;BME280;9523;42.650;23.386;2023-04-09T01:50:51;94846.09;;;6.52;100.00
18790;BME280;9523;42.650;23.386;2023-04-09T01:53:18;94841.06;;;6.46;100.00
18790;BME280;9523;42.650;23.386;2023-04-09T01:55:45;94816.88;;;6.24;100.00
18790;BME280;9523;42.650;23.386;2023-04-09T01:58:12;94839.44;;;6.35;100.00
18790;BME280;9523;42.650;23.386;2023-04-09T02:00:46;94838.34;;;6.26;100.00
18790;BME280;9523;42.650;23.386;2023-04-09T02:03:16;94844.09;;;6.23;100.00
18790;BME280;9523;42.650;23.386;2023-04-09T02:05:47;94838.31;;;6.16;100.00
18790;BME280;9523;42.650;23.386;2023-04-09T02:08:19;94843.78;;;6.09;100.00
18790;BME280;9523;42.650;23.386;2023-04-09T02:10:52;94834.78;;;5.95;100.00
18790;BME280;9523;42.650;23.386;2023-04-09T02:13:26;94854.44;;;5.97;100.00
18790;BME280;9523;42.650;23.386;2023-04-09T02:15:57;94845.25;;;5.95;100.00
18790;BME280;9523;42.650;23.386;2023-04-09T02:18:26;94848.91;;;5.94;100.00
18790;BME280;9523;42.650;23.386;2023-04-09T02:20:54;94847.59;;;5.91;100.00
18790;BME280;9523;42.650;23.386;2023-04-09T02:23:21;94845.78;;;5.92;100.00
18790;BME280;9523;42.650;23.386;2023-04-09T02:25:49;94816.06;;;5.76;100.00
18790;BME280;9523;42.650;23.386;2023-04-09T02:28:16;94839.16;;;5.84;100.00
18790;BME280;9523;42.650;23.386;2023-04-09T02:30:43;94786.00;;;5.47;100.00
18790;BME280;9523;42.650;23.386;2023-04-09T02:33:11;94841.75;;;5.84;100.00
18790;BME280;9523;42.650;23.386;2023-04-09T02:35:38;94838.03;;;5.75;100.00
18790;BME280;9523;42.650;23.386;2023-04-09T02:38:05;94841.47;;;5.81;100.00
18790;BME280;9523;42.650;23.386;2023-04-09T02:40:38;94841.91;;;5.67;100.00
18790;BME280;9523;42.650;23.386;2023-04-09T02:43:05;94840.31;;;5.66;100.00
18790;BME280;9523;42.650;23.386;2023-04-09T02:45:36;94836.44;;;5.69;100.00
18790;BME280;9523;42.650;23.386;2023-04-09T02:48:03;94835.91;;;5.72;100.00
18790;BME280;9523;42.650;23.386;2023-04-09T02:50:31;94844.31;;;5.74;100.00
18790;BME280;9523;42.650;23.386;2023-04-09T02:52:58;94834.34;;;5.71;100.00
18790;BME280;9523;42.650;23.386;2023-04-09T02:55:25;94830.97;;;5.76;100.00
18790;BME280;9523;42.650;23.386;2023-04-09T02:57:52;94828.03;;;5.67;100.00
18790;BME280;9523;42.650;23.386;2023-04-09T03:00:19;94839.06;;;5.74;100.00
18790;BME280;9523;42.650;23.386;2023-04-09T03:02:46;94831.22;;;5.74;100.00
18790;BME280;9523;42.650;23.386;2023-04-09T03:05:13;94835.34;;;5.65;100.00
18790;BME280;9523;42.650;23.386;2023-04-09T03:07:45;94830.59;;;5.62;100.00
18790;BME280;9523;42.650;23.386;2023-04-09T03:10:13;94824.06;;;5.59;100.00
18790;BME280;9523;42.650;23.386;2023-04-09T03:12:39;94830.06;;;5.60;100.00
18790;BME280;9523;42.650;23.386;2023-04-09T03:15:09;94806.88;;;5.37;100.00
18790;BME280;9523;42.650;23.386;2023-04-09T03:17:36;94833.69;;;5.54;100.00
18790;BME280;9523;42.650;23.386;2023-04-09T03:20:03;94830.53;;;5.52;100.00
18790;BME280;9523;42.650;23.386;2023-04-09T03:22:35;94831.03;;;5.49;100.00
18790;BME280;9523;42.650;23.386;2023-04-09T03:25:04;94829.97;;;5.50;100.00
18790;BME280;9523;42.650;23.386;2023-04-09T03:27:31;94832.69;;;5.60;100.00
18790;BME280;9523;42.650;23.386;2023-04-09T03:29:58;94836.34;;;5.59;100.00
18790;BME280;9523;42.650;23.386;2023-04-09T03:32:25;94829.56;;;5.63;100.00
18790;BME280;9523;42.650;23.386;2023-04-09T03:34:52;94835.56;;;5.58;100.00
18790;BME280;9523;42.650;23.386;2023-04-09T03:37:18;94844.16;;;5.54;100.00
18790;BME280;9523;42.650;23.386;2023-04-09T03:39:48;94841.06;;;5.57;100.00
18790;BME280;9523;42.650;23.386;2023-04-09T03:42:17;94833.50;;;5.60;100.00
18790;BME280;9523;42.650;23.386;2023-04-09T03:44:44;94838.72;;;5.60;100.00
18790;BME280;9523;42.650;23.386;2023-04-09T03:47:11;94841.06;;;5.62;100.00
18790;BME280;9523;42.650;23.386;2023-04-09T03:49:38;94834.75;;;5.58;100.00
18790;BME280;9523;42.650;23.386;2023-04-09T03:52:05;94836.06;;;5.55;100.00
18790;BME280;9523;42.650;23.386;2023-04-09T03:54:32;94825.53;;;5.50;100.00
18790;BME280;9523;42.650;23.386;2023-04-09T03:56:59;94838.72;;;5.60;100.00
18790;BME280;9523;42.650;23.386;2023-04-09T03:59:29;94847.38;;;5.66;100.00
18790;BME280;9523;42.650;23.386;2023-04-09T04:01:56;94843.16;;;5.60;100.00
18790;BME280;9523;42.650;23.386;2023-04-09T04:04:23;94851.53;;;5.62;100.00
18790;BME280;9523;42.650;23.386;2023-04-09T04:06:50;94847.94;;;5.68;100.00
18790;BME280;9523;42.650;23.386;2023-04-09T04:09:20;94855.56;;;5.75;100.00
18790;BME280;9523;42.650;23.386;2023-04-09T04:11:47;94860.06;;;5.79;100.00
18790;BME280;9523;42.650;23.386;2023-04-09T04:14:14;94860.09;;;5.84;100.00
18790;BME280;9523;42.650;23.386;2023-04-09T04:16:42;94853.06;;;5.90;100.00
18790;BME280;9523;42.650;23.386;2023-04-09T04:19:09;94854.91;;;5.89;100.00
18790;BME280;9523;42.650;23.386;2023-04-09T04:21:36;94855.97;;;5.88;100.00
18790;BME280;9523;42.650;23.386;2023-04-09T04:24:03;94853.03;;;5.85;100.00
18790;BME280;9523;42.650;23.386;2023-04-09T04:26:30;94853.78;;;5.85;100.00
18790;BME280;9523;42.650;23.386;2023-04-09T04:28:57;94862.28;;;5.92;100.00
18790;BME280;9523;42.650;23.386;2023-04-09T04:31:23;94859.94;;;5.96;100.00
18790;BME280;9523;42.650;23.386;2023-04-09T04:33:52;94861.34;;;6.08;100.00
18790;BME280;9523;42.650;23.386;2023-04-09T04:36:19;94858.50;;;6.20;100.00
18790;BME280;9523;42.650;23.386;2023-04-09T04:38:46;94857.25;;;6.28;100.00
18790;BME280;9523;42.650;23.386;2023-04-09T04:41:13;94857.75;;;6.30;100.00
18790;BME280;9523;42.650;23.386;2023-04-09T04:43:40;94867.28;;;6.46;100.00
18790;BME280;9523;42.650;23.386;2023-04-09T04:46:07;94858.41;;;6.52;100.00
18790;BME280;9523;42.650;23.386;2023-04-09T04:48:34;94861.03;;;6.52;100.00
18790;BME280;9523;42.650;23.386;2023-04-09T04:51:02;94867.34;;;6.61;100.00
18790;BME280;9523;42.650;23.386;2023-04-09T04:53:29;94862.91;;;6.67;100.00
18790;BME280;9523;42.650;23.386;2023-04-09T04:55:56;94856.34;;;6.69;100.00
18790;BME280;9523;42.650;23.386;2023-04-09T04:58:40;94867.94;;;6.83;100.00
18790;BME280;9523;42.650;23.386;2023-04-09T05:01:11;94862.22;;;6.96;100.00
18790;BME280;9523;42.650;23.386;2023-04-09T05:03:38;94861.69;;;6.94;100.00
18790;BME280;9523;42.650;23.386;2023-04-09T05:06:07;94865.13;;;7.05;100.00
18790;BME280;9523;42.650;23.386;2023-04-09T05:08:34;94878.28;;;7.20;100.00
18790;BME280;9523;42.650;23.386;2023-04-09T05:11:01;94869.09;;;7.33;100.00
18790;BME280;9523;42.650;23.386;2023-04-09T05:13:28;94865.19;;;7.45;100.00
18790;BME280;9523;42.650;23.386;2023-04-09T05:15:55;94874.13;;;7.54;100.00
18790;BME280;9523;42.650;23.386;2023-04-09T05:18:23;94862.84;;;7.59;100.00
18790;BME280;9523;42.650;23.386;2023-04-09T05:20:49;94869.66;;;7.75;100.00
18790;BME280;9523;42.650;23.386;2023-04-09T05:23:21;94868.34;;;7.83;100.00
18790;BME280;9523;42.650;23.386;2023-04-09T05:25:51;94875.16;;;7.89;100.00
18790;BME280;9523;42.650;23.386;2023-04-09T05:28:18;94869.66;;;7.95;100.00
18790;BME280;9523;42.650;23.386;2023-04-09T05:30:45;94876.72;;;8.05;100.00
18790;BME280;9523;42.650;23.386;2023-04-09T05:33:12;94867.25;;;8.14;100.00
18790;BME280;9523;42.650;23.386;2023-04-09T05:35:39;94873.31;;;8.15;100.00
18790;BME280;9523;42.650;23.386;2023-04-09T05:38:07;94875.13;;;8.29;100.00
18790;BME280;9523;42.650;23.386;2023-04-09T05:40:35;94868.53;;;8.37;100.00
18790;BME280;9523;42.650;23.386;2023-04-09T05:43:02;94864.59;;;8.39;100.00
18790;BME280;9523;42.650;23.386;2023-04-09T05:45:29;94866.41;;;8.54;100.00
18790;BME280;9523;42.650;23.386;2023-04-09T05:48:06;94865.91;;;8.47;100.00
18790;BME280;9523;42.650;23.386;2023-04-09T05:50:36;94875.88;;;8.50;100.00
18790;BME280;9523;42.650;23.386;2023-04-09T05:53:03;94872.66;;;8.68;100.00
18790;BME280;9523;42.650;23.386;2023-04-09T05:55:30;94870.81;;;8.69;100.00
18790;BME280;9523;42.650;23.386;2023-04-09T05:57:59;94869.75;;;8.70;100.00
18790;BME280;9523;42.650;23.386;2023-04-09T06:00:26;94878.38;;;8.85;100.00
18790;BME280;9523;42.650;23.386;2023-04-09T06:02:55;94870.47;;;8.85;100.00
18790;BME280;9523;42.650;23.386;2023-04-09T06:05:22;94878.84;;;8.92;100.00
18790;BME280;9523;42.650;23.386;2023-04-09T06:07:49;94863.31;;;8.96;100.00
18790;BME280;9523;42.650;23.386;2023-04-09T06:10:22;94880.34;;;9.14;100.00
18790;BME280;9523;42.650;23.386;2023-04-09T06:12:51;94871.88;;;9.22;100.00
18790;BME280;9523;42.650;23.386;2023-04-09T06:15:21;94859.53;;;9.17;100.00
18790;BME280;9523;42.650;23.386;2023-04-09T06:17:48;94882.78;;;9.44;100.00
18790;BME280;9523;42.650;23.386;2023-04-09T06:20:15;94877.47;;;9.54;100.00
18790;BME280;9523;42.650;23.386;2023-04-09T06:22:42;94886.09;;;9.60;100.00
18790;BME280;9523;42.650;23.386;2023-04-09T06:25:12;94883.91;;;9.33;100.00
18790;BME280;9523;42.650;23.386;2023-04-09T06:27:40;94876.00;;;9.38;100.00
18790;BME280;9523;42.650;23.386;2023-04-09T06:30:08;94879.22;;;9.25;100.00
18790;BME280;9523;42.650;23.386;2023-04-09T06:32:37;94873.72;;;9.21;100.00
18790;BME280;9523;42.650;23.386;2023-04-09T06:35:08;94883.94;;;9.28;100.00
18790;BME280;9523;42.650;23.386;2023-04-09T06:37:35;94887.88;;;9.35;100.00
18790;BME280;9523;42.650;23.386;2023-04-09T06:40:02;94877.50;;;9.44;100.00
18790;BME280;9523;42.650;23.386;2023-04-09T06:42:29;94891.91;;;9.62;100.00
18790;BME280;9523;42.650;23.386;2023-04-09T06:44:59;94889.00;;;9.63;100.00
18790;BME280;9523;42.650;23.386;2023-04-09T06:47:32;94890.16;;;9.81;100.00
18790;BME280;9523;42.650;23.386;2023-04-09T06:50:01;94883.25;;;9.90;100.00
18790;BME280;9523;42.650;23.386;2023-04-09T06:52:27;94883.06;;;10.10;100.00
18790;BME280;9523;42.650;23.386;2023-04-09T06:54:54;94893.50;;;10.25;100.00
18790;BME280;9523;42.650;23.386;2023-04-09T06:57:22;94880.56;;;10.29;100.00
18790;BME280;9523;42.650;23.386;2023-04-09T06:59:49;94896.97;;;10.50;99.36
18790;BME280;9523;42.650;23.386;2023-04-09T07:02:16;94903.97;;;10.59;96.17
18790;BME280;9523;42.650;23.386;2023-04-09T07:04:54;94897.03;;;10.68;94.53
18790;BME280;9523;42.650;23.386;2023-04-09T07:07:22;94888.84;;;10.70;92.78
18790;BME280;9523;42.650;23.386;2023-04-09T07:09:49;94894.69;;;10.67;94.54
18790;BME280;9523;42.650;23.386;2023-04-09T07:12:27;94900.09;;;10.75;90.63
18790;BME280;9523;42.650;23.386;2023-04-09T07:14:56;94896.41;;;10.76;91.58
18790;BME280;9523;42.650;23.386;2023-04-09T07:17:23;94905.16;;;10.72;89.37
18790;BME280;9523;42.650;23.386;2023-04-09T07:19:50;94900.72;;;10.67;87.47
18790;BME280;9523;42.650;23.386;2023-04-09T07:22:21;94902.25;;;10.73;87.16
18790;BME280;9523;42.650;23.386;2023-04-09T07:24:49;94904.22;;;10.87;91.92
18790;BME280;9523;42.650;23.386;2023-04-09T07:27:18;94915.03;;;10.85;86.12
18790;BME280;9523;42.650;23.386;2023-04-09T07:29:48;94903.47;;;10.81;83.67
18790;BME280;9523;42.650;23.386;2023-04-09T07:32:18;94907.97;;;10.80;82.09
18790;BME280;9523;42.650;23.386;2023-04-09T07:34:45;94903.47;;;10.81;81.75
18790;BME280;9523;42.650;23.386;2023-04-09T07:37:14;94905.28;;;10.62;82.57
18790;BME280;9523;42.650;23.386;2023-04-09T07:39:41;94910.00;;;10.89;81.34
18790;BME280;9523;42.650;23.386;2023-04-09T07:42:12;94903.31;;;11.15;82.38
18790;BME280;9523;42.650;23.386;2023-04-09T07:44:41;94916.03;;;11.13;78.48
18790;BME280;9523;42.650;23.386;2023-04-09T07:47:08;94913.63;;;11.35;81.78
18790;BME280;9523;42.650;23.386;2023-04-09T07:49:35;94908.56;;;11.39;80.81
18790;BME280;9523;42.650;23.386;2023-04-09T07:52:03;94919.13;;;11.39;78.46
18790;BME280;9523;42.650;23.386;2023-04-09T07:57:13;94929.19;;;11.37;77.73
18790;BME280;9523;42.650;23.386;2023-04-09T07:59:44;94901.63;;;11.24;78.24
18790;BME280;9523;42.650;23.386;2023-04-09T08:02:11;94924.22;;;11.11;77.12
18790;BME280;9523;42.650;23.386;2023-04-09T08:04:40;94933.88;;;11.21;76.47
18790;BME280;9523;42.650;23.386;2023-04-09T08:07:07;94935.78;;;11.15;76.57
18790;BME280;9523;42.650;23.386;2023-04-09T08:09:34;94934.34;;;11.04;76.93
18790;BME280;9523;42.650;23.386;2023-04-09T08:12:02;94945.09;;;10.89;77.53
18790;BME280;9523;42.650;23.386;2023-04-09T08:14:30;94932.34;;;10.96;77.79
18790;BME280;9523;42.650;23.386;2023-04-09T08:16:58;94945.97;;;10.79;78.28
18790;BME280;9523;42.650;23.386;2023-04-09T08:19:25;94943.25;;;10.90;79.96
18790;BME280;9523;42.650;23.386;2023-04-09T08:21:55;94939.63;;;10.80;82.18
18790;BME280;9523;42.650;23.386;2023-04-09T08:24:25;94944.66;;;10.82;86.66
18790;BME280;9523;42.650;23.386;2023-04-09T08:26:51;94936.19;;;11.04;85.82
18790;BME280;9523;42.650;23.386;2023-04-09T08:29:18;94947.78;;;11.08;81.77
18790;BME280;9523;42.650;23.386;2023-04-09T08:31:47;94949.09;;;11.10;81.17
18790;BME280;9523;42.650;23.386;2023-04-09T08:34:14;94944.13;;;11.04;80.69
18790;BME280;9523;42.650;23.386;2023-04-09T08:36:45;94937.84;;;11.00;79.93
18790;BME280;9523;42.650;23.386;2023-04-09T08:39:14;94937.03;;;10.99;79.02
18790;BME280;9523;42.650;23.386;2023-04-09T08:41:44;94942.53;;;11.03;79.68
18790;BME280;9523;42.650;23.386;2023-04-09T08:44:12;94935.72;;;11.02;82.28
18790;BME280;9523;42.650;23.386;2023-04-09T08:46:39;94930.72;;;11.19;80.55
18790;BME280;9523;42.650;23.386;2023-04-09T08:49:08;94936.25;;;11.22;79.59
18790;BME280;9523;42.650;23.386;2023-04-09T08:51:36;94935.47;;;11.22;80.49
18790;BME280;9523;42.650;23.386;2023-04-09T08:54:04;94937.41;;;11.35;78.60
18790;BME280;9523;42.650;23.386;2023-04-09T08:56:31;94936.25;;;11.22;78.68
18790;BME280;9523;42.650;23.386;2023-04-09T08:58:58;94929.56;;;11.30;80.02
18790;BME280;9523;42.650;23.386;2023-04-09T09:01:26;94923.41;;;11.35;83.41
18790;BME280;9523;42.650;23.386;2023-04-09T09:03:57;94931.25;;;11.21;79.72
18790;BME280;9523;42.650;23.386;2023-04-09T09:06:27;94927.03;;;11.39;79.86
18790;BME280;9523;42.650;23.386;2023-04-09T09:09:02;94925.22;;;11.58;77.07
18790;BME280;9523;42.650;23.386;2023-04-09T09:11:29;94918.72;;;11.69;76.13
18790;BME280;9523;42.650;23.386;2023-04-09T09:13:57;94917.78;;;11.78;79.01
18790;BME280;9523;42.650;23.386;2023-04-09T09:16:23;94912.88;;;11.72;75.46
18790;BME280;9523;42.650;23.386;2023-04-09T09:18:50;94917.25;;;11.82;74.95
18790;BME280;9523;42.650;23.386;2023-04-09T09:21:19;94919.44;;;11.74;73.20
18790;BME280;9523;42.650;23.386;2023-04-09T09:23:48;94910.75;;;11.74;75.32
18790;BME280;9523;42.650;23.386;2023-04-09T09:26:17;94907.41;;;11.63;74.27
18790;BME280;9523;42.650;23.386;2023-04-09T09:28:45;94905.56;;;11.83;73.04
18790;BME280;9523;42.650;23.386;2023-04-09T09:31:13;94895.84;;;12.29;71.16
18790;BME280;9523;42.650;23.386;2023-04-09T09:33:40;94897.47;;;12.57;70.34
18790;BME280;9523;42.650;23.386;2023-04-09T09:36:07;94874.09;;;12.32;69.25
18790;BME280;9523;42.650;23.386;2023-04-09T09:38:52;94899.50;;;12.74;68.85
18790;BME280;9523;42.650;23.386;2023-04-09T09:41:20;94894.63;;;12.81;66.03
18790;BME280;9523;42.650;23.386;2023-04-09T09:43:49;94900.00;;;12.62;65.76
18790;BME280;9523;42.650;23.386;2023-04-09T09:46:16;94889.78;;;12.42;65.61
18790;BME280;9523;42.650;23.386;2023-04-09T09:48:44;94884.31;;;13.07;63.37
18790;BME280;9523;42.650;23.386;2023-04-09T09:51:12;94880.28;;;13.23;60.25
18790;BME280;9523;42.650;23.386;2023-04-09T09:53:42;94886.31;;;13.51;59.28
18790;BME280;9523;42.650;23.386;2023-04-09T09:56:13;94882.59;;;13.74;58.64
18790;BME280;9523;42.650;23.386;2023-04-09T09:58:44;94884.00;;;13.94;57.70
18790;BME280;9523;42.650;23.386;2023-04-09T10:01:12;94881.16;;;14.66;55.21
18790;BME280;9523;42.650;23.386;2023-04-09T10:03:43;94882.66;;;14.97;52.57
18790;BME280;9523;42.650;23.386;2023-04-09T10:06:14;94874.53;;;15.50;51.37
18790;BME280;9523;42.650;23.386;2023-04-09T10:08:41;94862.72;;;16.37;49.31
18790;BME280;9523;42.650;23.386;2023-04-09T10:11:11;94865.81;;;17.24;46.78
18790;BME280;9523;42.650;23.386;2023-04-09T10:13:45;94859.50;;;17.58;47.26
18790;BME280;9523;42.650;23.386;2023-04-09T10:16:14;94856.47;;;18.01;45.14
18790;BME280;9523;42.650;23.386;2023-04-09T10:18:43;94860.28;;;17.79;44.44
18790;BME280;9523;42.650;23.386;2023-04-09T10:21:16;94855.69;;;17.38;44.50
18790;BME280;9523;42.650;23.386;2023-04-09T10:23:48;94858.03;;;18.02;44.84
18790;BME280;9523;42.650;23.386;2023-04-09T10:26:20;94855.28;;;17.77;43.56
18790;BME280;9523;42.650;23.386;2023-04-09T10:29:03;94850.19;;;16.84;46.09
18790;BME280;9523;42.650;23.386;2023-04-09T10:31:44;94851.59;;;16.35;45.57
18790;BME280;9523;42.650;23.386;2023-04-09T10:34:14;94854.50;;;15.79;47.31
18790;BME280;9523;42.650;23.386;2023-04-09T10:36:42;94851.38;;;15.77;47.92
18790;BME280;9523;42.650;23.386;2023-04-09T10:39:11;94846.97;;;15.81;47.77
18790;BME280;9523;42.650;23.386;2023-04-09T10:41:40;94818.34;;;15.86;46.93
18790;BME280;9523;42.650;23.386;2023-04-09T10:44:19;94840.44;;;15.70;47.20
18790;BME280;9523;42.650;23.386;2023-04-09T10:46:49;94834.00;;;15.36;48.51
18790;BME280;9523;42.650;23.386;2023-04-09T10:49:19;94830.53;;;15.19;50.01
18790;BME280;9523;42.650;23.386;2023-04-09T10:51:50;94816.28;;;15.06;48.95
18790;BME280;9523;42.650;23.386;2023-04-09T10:54:41;94828.19;;;14.61;50.22
18790;BME280;9523;42.650;23.386;2023-04-09T10:57:16;94819.59;;;14.24;53.43
18790;BME280;9523;42.650;23.386;2023-04-09T10:59:44;94817.50;;;14.13;53.35
18790;BME280;9523;42.650;23.386;2023-04-09T11:02:41;94817.34;;;13.87;53.26
18790;BME280;9523;42.650;23.386;2023-04-09T11:05:21;94813.56;;;13.57;54.20
18790;BME280;9523;42.650;23.386;2023-04-09T11:07:55;94807.19;;;13.22;54.84
18790;BME280;9523;42.650;23.386;2023-04-09T11:10:23;94802.28;;;13.02;59.24
18790;BME280;9523;42.650;23.386;2023-04-09T11:12:55;94806.03;;;13.01;61.71
18790;BME280;9523;42.650;23.386;2023-04-09T11:15:22;94806.56;;;12.89;63.69
18790;BME280;9523;42.650;23.386;2023-04-09T11:17:49;94798.03;;;12.79;67.79
18790;BME280;9523;42.650;23.386;2023-04-09T11:20:20;94799.81;;;12.69;62.48
18790;BME280;9523;42.650;23.386;2023-04-09T11:22:48;94812.44;;;12.73;61.33
18790;BME280;9523;42.650;23.386;2023-04-09T11:25:19;94798.63;;;12.76;58.69
18790;BME280;9523;42.650;23.386;2023-04-09T11:27:46;94797.63;;;12.71;57.80
18790;BME280;9523;42.650;23.386;2023-04-09T11:30:15;94798.44;;;12.86;56.88
18790;BME280;9523;42.650;23.386;2023-04-09T11:32:42;94788.31;;;12.88;57.90
18790;BME280;9523;42.650;23.386;2023-04-09T11:35:12;94789.19;;;12.97;57.26
18790;BME280;9523;42.650;23.386;2023-04-09T11:37:42;94780.38;;;12.88;59.02
18790;BME280;9523;42.650;23.386;2023-04-09T11:40:25;94780.81;;;13.03;58.02
18790;BME280;9523;42.650;23.386;2023-04-09T11:42:54;94780.09;;;13.25;57.90
18790;BME280;9523;42.650;23.386;2023-04-09T11:45:34;94782.22;;;13.37;54.56
18790;BME280;9523;42.650;23.386;2023-04-09T11:48:01;94776.16;;;13.23;50.55
18790;BME280;9523;42.650;23.386;2023-04-09T11:50:31;94783.41;;;13.31;49.34
18790;BME280;9523;42.650;23.386;2023-04-09T11:52:58;94781.28;;;13.19;48.97
18790;BME280;9523;42.650;23.386;2023-04-09T11:55:25;94779.59;;;13.23;49.13
18790;BME280;9523;42.650;23.386;2023-04-09T11:57:55;94783.72;;;13.29;47.52
18790;BME280;9523;42.650;23.386;2023-04-09T12:00:23;94772.16;;;13.25;47.88
18790;BME280;9523;42.650;23.386;2023-04-09T12:02:59;94772.44;;;13.24;46.55
18790;BME280;9523;42.650;23.386;2023-04-09T12:05:28;94776.34;;;13.26;47.08
18790;BME280;9523;42.650;23.386;2023-04-09T12:08:00;94764.22;;;13.25;47.10
18790;BME280;9523;42.650;23.386;2023-04-09T12:10:30;94768.91;;;13.50;46.40
18790;BME280;9523;42.650;23.386;2023-04-09T12:13:05;94767.81;;;13.51;46.29
18790;BME280;9523;42.650;23.386;2023-04-09T12:15:35;94766.88;;;13.78;46.51
18790;BME280;9523;42.650;23.386;2023-04-09T12:18:07;94765.50;;;14.11;44.35
18790;BME280;9523;42.650;23.386;2023-04-09T12:20:36;94745.84;;;14.43;45.25
18790;BME280;9523;42.650;23.386;2023-04-09T12:23:04;94746.06;;;14.73;43.35
18790;BME280;9523;42.650;23.386;2023-04-09T12:25:33;94752.66;;;15.01;42.56
18790;BME280;9523;42.650;23.386;2023-04-09T12:28:01;94757.19;;;15.43;42.33
18790;BME280;9523;42.650;23.386;2023-04-09T12:30:28;94762.03;;;15.33;42.44
18790;BME280;9523;42.650;23.386;2023-04-09T12:32:55;94750.00;;;15.18;43.18
18790;BME280;9523;42.650;23.386;2023-04-09T12:35:25;94743.59;;;15.28;43.61
18790;BME280;9523;42.650;23.386;2023-04-09T12:37:52;94736.56;;;15.32;42.98
18790;BME280;9523;42.650;23.386;2023-04-09T12:40:23;94740.84;;;15.96;42.28
18790;BME280;9523;42.650;23.386;2023-04-09T12:42:50;94748.75;;;16.22;41.47
18790;BME280;9523;42.650;23.386;2023-04-09T12:45:18;94744.75;;;16.08;41.54
18790;BME280;9523;42.650;23.386;2023-04-09T12:47:45;94746.59;;;16.16;41.35
18790;BME280;9523;42.650;23.386;2023-04-09T12:50:15;94747.28;;;15.95;42.00
18790;BME280;9523;42.650;23.386;2023-04-09T12:52:44;94731.88;;;15.63;42.29
18790;BME280;9523;42.650;23.386;2023-04-09T12:55:12;94745.63;;;15.57;43.17
18790;BME280;9523;42.650;23.386;2023-04-09T12:57:41;94743.44;;;15.41;43.57
18790;BME280;9523;42.650;23.386;2023-04-09T13:00:10;94737.97;;;15.29;44.95
18790;BME280;9523;42.650;23.386;2023-04-09T13:02:37;94729.53;;;15.01;43.58
18790;BME280;9523;42.650;23.386;2023-04-09T13:05:04;94730.28;;;14.68;44.67
18790;BME280;9523;42.650;23.386;2023-04-09T13:07:34;94732.19;;;15.19;44.58
18790;BME280;9523;42.650;23.386;2023-04-09T13:10:03;94709.50;;;15.30;43.22
18790;BME280;9523;42.650;23.386;2023-04-09T13:12:30;94739.03;;;15.45;43.11